sensor_id;sensor_type;location;lat;lon;timestamp;temperature;humidity
65864;SHT30;52639;51.180;20.460;2023-09-08T00:01:20;11.18;87.13
65864;SHT30;52639;51.180;20.460;2023-09-08T00:05:23;11.12;87.32
65864;SHT30;52639;51.180;20.460;2023-09-08T00:09:27;11.10;87.56
65864;SHT30;52639;51.180;20.460;2023-09-08T00:13:30;11.12;87.55
65864;SHT30;52639;51.180;20.460;2023-09-08T00:22:38;10.99;87.67
65864;SHT30;52639;51.180;20.460;2023-09-08T00:26:52;11.03;87.48
65864;SHT30;52639;51.180;20.460;2023-09-08T00:31:08;11.10;87.39
65864;SHT30;52639;51.180;20.460;2023-09-08T00:35:11;11.15;87.45
65864;SHT30;52639;51.180;20.460;2023-09-08T00:39:40;10.99;87.50
65864;SHT30;52639;51.180;20.460;2023-09-08T00:44:07;10.83;87.97
65864;SHT30;52639;51.180;20.460;2023-09-08T00:49:18;10.72;88.21
65864;SHT30;52639;51.180;20.460;2023-09-08T00:53:24;10.58;88.38
65864;SHT30;52639;51.180;20.460;2023-09-08T00:57:27;10.52;88.63
65864;SHT30;52639;51.180;20.460;2023-09-08T01:01:33;10.78;88.05
65864;SHT30;52639;51.180;20.460;2023-09-08T01:05:37;11.02;87.40
65864;SHT30;52639;51.180;20.460;2023-09-08T01:09:42;11.18;87.28
65864;SHT30;52639;51.180;20.460;2023-09-08T01:13:48;11.10;87.18
65864;SHT30;52639;51.180;20.460;2023-09-08T01:17:53;10.93;87.86
65864;SHT30;52639;51.180;20.460;2023-09-08T01:26:57;10.48;88.63
65864;SHT30;52639;51.180;20.460;2023-09-08T01:31:00;10.37;88.97
65864;SHT30;52639;51.180;20.460;2023-09-08T01:35:04;10.34;88.92
65864;SHT30;52639;51.180;20.460;2023-09-08T01:39:07;10.34;88.87
65864;SHT30;52639;51.180;20.460;2023-09-08T01:43:19;10.30;88.78
65864;SHT30;52639;51.180;20.460;2023-09-08T01:47:23;10.25;88.88
65864;SHT30;52639;51.180;20.460;2023-09-08T01:51:26;10.22;89.17
65864;SHT30;52639;51.180;20.460;2023-09-08T01:55:29;10.27;88.86
65864;SHT30;52639;51.180;20.460;2023-09-08T01:59:33;10.14;88.68
65864;SHT30;52639;51.180;20.460;2023-09-08T02:03:38;10.04;89.03
65864;SHT30;52639;51.180;20.460;2023-09-08T02:07:41;10.13;88.85
65864;SHT30;52639;51.180;20.460;2023-09-08T02:11:52;10.07;88.82
65864;SHT30;52639;51.180;20.460;2023-09-08T02:16:31;9.98;88.80
65864;SHT30;52639;51.180;20.460;2023-09-08T02:31:24;9.87;88.80
65864;SHT30;52639;51.180;20.460;2023-09-08T02:40:02;9.94;88.76
65864;SHT30;52639;51.180;20.460;2023-09-08T02:44:07;9.94;88.67
65864;SHT30;52639;51.180;20.460;2023-09-08T02:48:21;9.94;88.45
65864;SHT30;52639;51.180;20.460;2023-09-08T02:52:24;9.93;88.74
65864;SHT30;52639;51.180;20.460;2023-09-08T02:56:28;10.17;88.44
65864;SHT30;52639;51.180;20.460;2023-09-08T03:00:32;10.10;88.20
65864;SHT30;52639;51.180;20.460;2023-09-08T03:04:35;10.05;88.31
65864;SHT30;52639;51.180;20.460;2023-09-08T03:08:38;10.08;88.64
65864;SHT30;52639;51.180;20.460;2023-09-08T03:16:53;9.90;88.58
65864;SHT30;52639;51.180;20.460;2023-09-08T03:20:57;9.95;89.11
65864;SHT30;52639;51.180;20.460;2023-09-08T03:35:18;9.71;89.20
65864;SHT30;52639;51.180;20.460;2023-09-08T03:39:38;9.76;89.37
65864;SHT30;52639;51.180;20.460;2023-09-08T03:43:44;9.89;88.62
65864;SHT30;52639;51.180;20.460;2023-09-08T03:48:19;9.67;89.01
65864;SHT30;52639;51.180;20.460;2023-09-08T03:52:55;9.60;89.23
65864;SHT30;52639;51.180;20.460;2023-09-08T03:56:59;9.59;89.37
65864;SHT30;52639;51.180;20.460;2023-09-08T04:01:02;9.59;89.25
65864;SHT30;52639;51.180;20.460;2023-09-08T04:05:06;9.57;89.22
65864;SHT30;52639;51.180;20.460;2023-09-08T04:09:11;9.54;89.21
65864;SHT30;52639;51.180;20.460;2023-09-08T04:18:57;9.77;88.93
65864;SHT30;52639;51.180;20.460;2023-09-08T04:23:12;10.00;88.09
65864;SHT30;52639;51.180;20.460;2023-09-08T04:27:17;9.91;88.44
65864;SHT30;52639;51.180;20.460;2023-09-08T04:31:46;9.98;88.58
65864;SHT30;52639;51.180;20.460;2023-09-08T04:35:58;10.07;88.57
65864;SHT30;52639;51.180;20.460;2023-09-08T04:49:58;10.85;87.72
65864;SHT30;52639;51.180;20.460;2023-09-08T04:54:02;11.13;87.04
65864;SHT30;52639;51.180;20.460;2023-09-08T04:58:08;11.40;87.06
65864;SHT30;52639;51.180;20.460;2023-09-08T05:02:24;11.84;86.43
65864;SHT30;52639;51.180;20.460;2023-09-08T05:06:28;12.18;86.20
65864;SHT30;52639;51.180;20.460;2023-09-08T05:10:40;12.52;85.82
65864;SHT30;52639;51.180;20.460;2023-09-08T05:14:43;12.82;87.38
65864;SHT30;52639;51.180;20.460;2023-09-08T05:18:47;13.20;85.63
65864;SHT30;52639;51.180;20.460;2023-09-08T05:22:52;13.46;85.42
65864;SHT30;52639;51.180;20.460;2023-09-08T05:26:55;13.82;85.41
65864;SHT30;52639;51.180;20.460;2023-09-08T05:30:58;14.28;85.12
65864;SHT30;52639;51.180;20.460;2023-09-08T05:35:18;14.89;84.94
65864;SHT30;52639;51.180;20.460;2023-09-08T05:39:23;15.84;83.91
65864;SHT30;52639;51.180;20.460;2023-09-08T05:43:26;16.91;83.92
65864;SHT30;52639;51.180;20.460;2023-09-08T05:47:30;20.43;77.29
65864;SHT30;52639;51.180;20.460;2023-09-08T05:51:35;22.74;73.48
65864;SHT30;52639;51.180;20.460;2023-09-08T05:55:39;24.97;69.32
65864;SHT30;52639;51.180;20.460;2023-09-08T05:59:43;26.94;66.79
65864;SHT30;52639;51.180;20.460;2023-09-08T06:03:46;28.19;64.96
65864;SHT30;52639;51.180;20.460;2023-09-08T06:07:49;29.28;62.95
65864;SHT30;52639;51.180;20.460;2023-09-08T06:11:53;30.14;60.84
65864;SHT30;52639;51.180;20.460;2023-09-08T06:15:56;30.48;60.19
65864;SHT30;52639;51.180;20.460;2023-09-08T06:20:00;32.16;56.29
65864;SHT30;52639;51.180;20.460;2023-09-08T06:24:03;32.56;55.48
65864;SHT30;52639;51.180;20.460;2023-09-08T06:28:08;32.76;54.80
65864;SHT30;52639;51.180;20.460;2023-09-08T06:32:11;33.28;53.52
65864;SHT30;52639;51.180;20.460;2023-09-08T06:36:15;33.82;52.37
65864;SHT30;52639;51.180;20.460;2023-09-08T06:40:18;32.86;53.47
65864;SHT30;52639;51.180;20.460;2023-09-08T06:44:26;32.13;52.98
65864;SHT30;52639;51.180;20.460;2023-09-08T06:48:29;32.49;52.20
65864;SHT30;52639;51.180;20.460;2023-09-08T06:52:32;33.48;49.92
65864;SHT30;52639;51.180;20.460;2023-09-08T06:56:36;34.25;48.42
65864;SHT30;52639;51.180;20.460;2023-09-08T07:00:43;33.81;48.86
65864;SHT30;52639;51.180;20.460;2023-09-08T07:04:46;33.85;48.66
65864;SHT30;52639;51.180;20.460;2023-09-08T07:08:49;33.61;48.76
65864;SHT30;52639;51.180;20.460;2023-09-08T07:12:52;35.26;45.93
65864;SHT30;52639;51.180;20.460;2023-09-08T07:17:11;36.09;44.12
65864;SHT30;52639;51.180;20.460;2023-09-08T07:21:15;36.60;44.11
65864;SHT30;52639;51.180;20.460;2023-09-08T07:25:18;36.26;44.45
65864;SHT30;52639;51.180;20.460;2023-09-08T07:29:34;36.26;43.91
65864;SHT30;52639;51.180;20.460;2023-09-08T07:33:39;36.28;43.26
65864;SHT30;52639;51.180;20.460;2023-09-08T07:37:42;36.45;43.00
65864;SHT30;52639;51.180;20.460;2023-09-08T07:41:45;36.42;42.70
65864;SHT30;52639;51.180;20.460;2023-09-08T07:45:49;35.88;43.65
65864;SHT30;52639;51.180;20.460;2023-09-08T07:50:16;36.75;41.57
65864;SHT30;52639;51.180;20.460;2023-09-08T07:54:20;35.80;43.96
65864;SHT30;52639;51.180;20.460;2023-09-08T07:58:23;35.85;43.55
65864;SHT30;52639;51.180;20.460;2023-09-08T08:02:29;35.78;43.02
65864;SHT30;52639;51.180;20.460;2023-09-08T08:06:34;34.29;44.58
65864;SHT30;52639;51.180;20.460;2023-09-08T08:10:37;35.45;42.51
65864;SHT30;52639;51.180;20.460;2023-09-08T08:14:40;35.00;42.91
65864;SHT30;52639;51.180;20.460;2023-09-08T08:18:43;34.90;43.04
65864;SHT30;52639;51.180;20.460;2023-09-08T08:22:50;34.80;43.03
65864;SHT30;52639;51.180;20.460;2023-09-08T08:26:54;33.98;44.06
65864;SHT30;52639;51.180;20.460;2023-09-08T08:30:56;33.37;44.52
65864;SHT30;52639;51.180;20.460;2023-09-08T08:35:00;33.41;44.11
65864;SHT30;52639;51.180;20.460;2023-09-08T08:39:04;33.51;43.79
65864;SHT30;52639;51.180;20.460;2023-09-08T08:43:08;33.42;43.97
65864;SHT30;52639;51.180;20.460;2023-09-08T08:47:12;33.01;44.21
65864;SHT30;52639;51.180;20.460;2023-09-08T08:51:18;32.77;44.07
65864;SHT30;52639;51.180;20.460;2023-09-08T08:55:24;32.57;44.62
65864;SHT30;52639;51.180;20.460;2023-09-08T08:59:28;32.37;44.86
65864;SHT30;52639;51.180;20.460;2023-09-08T09:03:33;32.05;44.93
65864;SHT30;52639;51.180;20.460;2023-09-08T09:07:39;32.33;44.56
65864;SHT30;52639;51.180;20.460;2023-09-08T09:11:44;32.14;44.48
65864;SHT30;52639;51.180;20.460;2023-09-08T09:15:48;30.66;46.57
65864;SHT30;52639;51.180;20.460;2023-09-08T09:20:12;30.20;45.93
65864;SHT30;52639;51.180;20.460;2023-09-08T09:24:15;29.85;46.68
65864;SHT30;52639;51.180;20.460;2023-09-08T09:28:20;30.66;45.09
65864;SHT30;52639;51.180;20.460;2023-09-08T09:32:23;31.22;45.03
65864;SHT30;52639;51.180;20.460;2023-09-08T09:36:26;29.17;48.15
65864;SHT30;52639;51.180;20.460;2023-09-08T09:40:30;30.08;45.45
65864;SHT30;52639;51.180;20.460;2023-09-08T09:44:35;30.67;43.22
65864;SHT30;52639;51.180;20.460;2023-09-08T09:48:38;30.80;43.03
65864;SHT30;52639;51.180;20.460;2023-09-08T09:52:41;30.54;43.77
65864;SHT30;52639;51.180;20.460;2023-09-08T09:56:50;30.78;43.45
65864;SHT30;52639;51.180;20.460;2023-09-08T10:00:57;30.98;43.21
65864;SHT30;52639;51.180;20.460;2023-09-08T10:05:10;31.42;42.12
65864;SHT30;52639;51.180;20.460;2023-09-08T10:09:15;30.83;43.13
65864;SHT30;52639;51.180;20.460;2023-09-08T10:13:25;30.09;44.15
65864;SHT30;52639;51.180;20.460;2023-09-08T10:17:33;29.58;44.71
65864;SHT30;52639;51.180;20.460;2023-09-08T10:21:40;29.24;45.03
65864;SHT30;52639;51.180;20.460;2023-09-08T10:25:44;29.24;45.04
65864;SHT30;52639;51.180;20.460;2023-09-08T10:29:54;28.13;46.65
65864;SHT30;52639;51.180;20.460;2023-09-08T10:34:00;28.02;46.47
65864;SHT30;52639;51.180;20.460;2023-09-08T10:38:31;26.70;47.36
65864;SHT30;52639;51.180;20.460;2023-09-08T10:42:40;26.47;49.16
65864;SHT30;52639;51.180;20.460;2023-09-08T10:46:42;26.49;48.89
65864;SHT30;52639;51.180;20.460;2023-09-08T10:50:47;25.90;49.75
65864;SHT30;52639;51.180;20.460;2023-09-08T10:54:51;25.49;50.67
65864;SHT30;52639;51.180;20.460;2023-09-08T10:58:54;25.64;50.38
65864;SHT30;52639;51.180;20.460;2023-09-08T11:02:57;26.07;49.09
65864;SHT30;52639;51.180;20.460;2023-09-08T11:07:03;26.35;48.70
65864;SHT30;52639;51.180;20.460;2023-09-08T11:11:06;26.93;47.48
65864;SHT30;52639;51.180;20.460;2023-09-08T11:15:10;26.94;47.73
65864;SHT30;52639;51.180;20.460;2023-09-08T11:19:12;27.18;47.66
65864;SHT30;52639;51.180;20.460;2023-09-08T11:23:17;26.90;48.26
65864;SHT30;52639;51.180;20.460;2023-09-08T11:27:21;27.11;48.01
65864;SHT30;52639;51.180;20.460;2023-09-08T11:31:24;27.41;47.32
65864;SHT30;52639;51.180;20.460;2023-09-08T11:35:27;27.56;47.26
65864;SHT30;52639;51.180;20.460;2023-09-08T11:39:36;27.72;47.05
65864;SHT30;52639;51.180;20.460;2023-09-08T11:43:39;27.45;47.67
65864;SHT30;52639;51.180;20.460;2023-09-08T11:47:43;27.61;47.52
65864;SHT30;52639;51.180;20.460;2023-09-08T11:51:46;27.45;47.55
65864;SHT30;52639;51.180;20.460;2023-09-08T11:55:50;27.25;47.62
65864;SHT30;52639;51.180;20.460;2023-09-08T11:59:53;27.31;47.83
65864;SHT30;52639;51.180;20.460;2023-09-08T12:03:57;27.39;47.31
65864;SHT30;52639;51.180;20.460;2023-09-08T12:08:03;27.23;47.45
65864;SHT30;52639;51.180;20.460;2023-09-08T12:12:12;26.46;48.56
65864;SHT30;52639;51.180;20.460;2023-09-08T12:16:18;25.99;49.01
65864;SHT30;52639;51.180;20.460;2023-09-08T12:20:22;25.75;49.46
65864;SHT30;52639;51.180;20.460;2023-09-08T12:24:47;25.49;49.65
65864;SHT30;52639;51.180;20.460;2023-09-08T12:28:52;25.32;49.92
65864;SHT30;52639;51.180;20.460;2023-09-08T12:32:56;25.31;50.37
65864;SHT30;52639;51.180;20.460;2023-09-08T12:37:08;24.81;52.56
65864;SHT30;52639;51.180;20.460;2023-09-08T12:41:13;24.70;53.11
65864;SHT30;52639;51.180;20.460;2023-09-08T12:45:17;25.12;51.62
65864;SHT30;52639;51.180;20.460;2023-09-08T12:49:21;25.28;51.11
65864;SHT30;52639;51.180;20.460;2023-09-08T12:53:24;25.37;50.94
65864;SHT30;52639;51.180;20.460;2023-09-08T12:57:27;25.48;50.79
65864;SHT30;52639;51.180;20.460;2023-09-08T13:01:32;25.64;50.70
65864;SHT30;52639;51.180;20.460;2023-09-08T13:05:36;25.64;50.78
65864;SHT30;52639;51.180;20.460;2023-09-08T13:09:40;25.38;51.05
65864;SHT30;52639;51.180;20.460;2023-09-08T13:13:44;25.42;50.84
65864;SHT30;52639;51.180;20.460;2023-09-08T13:17:49;25.58;50.66
65864;SHT30;52639;51.180;20.460;2023-09-08T13:21:53;25.15;51.87
65864;SHT30;52639;51.180;20.460;2023-09-08T13:25:56;25.37;51.37
65864;SHT30;52639;51.180;20.460;2023-09-08T13:30:08;25.28;51.70
65864;SHT30;52639;51.180;20.460;2023-09-08T13:34:16;25.07;52.96
65864;SHT30;52639;51.180;20.460;2023-09-08T13:38:20;25.27;52.23
65864;SHT30;52639;51.180;20.460;2023-09-08T13:42:23;25.41;51.68
65864;SHT30;52639;51.180;20.460;2023-09-08T13:46:26;25.31;51.66
65864;SHT30;52639;51.180;20.460;2023-09-08T13:50:32;25.06;53.33
65864;SHT30;52639;51.180;20.460;2023-09-08T13:54:36;24.66;54.45
65864;SHT30;52639;51.180;20.460;2023-09-08T13:58:40;24.71;54.68
65864;SHT30;52639;51.180;20.460;2023-09-08T14:02:48;24.47;55.86
65864;SHT30;52639;51.180;20.460;2023-09-08T14:06:53;24.36;56.00
65864;SHT30;52639;51.180;20.460;2023-09-08T14:10:57;24.52;55.01
65864;SHT30;52639;51.180;20.460;2023-09-08T14:15:01;24.95;53.21
65864;SHT30;52639;51.180;20.460;2023-09-08T14:19:06;24.64;54.77
65864;SHT30;52639;51.180;20.460;2023-09-08T14:23:10;25.01;53.47
65864;SHT30;52639;51.180;20.460;2023-09-08T14:27:15;25.08;52.92
65864;SHT30;52639;51.180;20.460;2023-09-08T14:31:18;25.20;52.46
65864;SHT30;52639;51.180;20.460;2023-09-08T14:35:22;24.90;53.59
65864;SHT30;52639;51.180;20.460;2023-09-08T14:39:31;24.88;53.26
65864;SHT30;52639;51.180;20.460;2023-09-08T14:43:36;24.60;54.22
65864;SHT30;52639;51.180;20.460;2023-09-08T14:47:40;24.10;55.76
65864;SHT30;52639;51.180;20.460;2023-09-08T14:51:44;24.26;54.96
65864;SHT30;52639;51.180;20.460;2023-09-08T14:55:50;24.52;54.02
65864;SHT30;52639;51.180;20.460;2023-09-08T14:59:57;24.74;53.20
65864;SHT30;52639;51.180;20.460;2023-09-08T15:04:00;24.81;53.02
65864;SHT30;52639;51.180;20.460;2023-09-08T15:08:04;24.59;53.88
65864;SHT30;52639;51.180;20.460;2023-09-08T15:12:09;24.49;54.06
65864;SHT30;52639;51.180;20.460;2023-09-08T15:16:13;23.82;56.39
65864;SHT30;52639;51.180;20.460;2023-09-08T15:20:17;23.38;57.99
65864;SHT30;52639;51.180;20.460;2023-09-08T15:24:21;23.04;59.20
65864;SHT30;52639;51.180;20.460;2023-09-08T15:28:26;23.12;58.78
65864;SHT30;52639;51.180;20.460;2023-09-08T15:32:31;23.10;58.17
65864;SHT30;52639;51.180;20.460;2023-09-08T15:36:34;22.83;58.28
65864;SHT30;52639;51.180;20.460;2023-09-08T15:40:39;22.30;60.11
65864;SHT30;52639;51.180;20.460;2023-09-08T15:44:59;22.02;61.15
65864;SHT30;52639;51.180;20.460;2023-09-08T15:49:03;21.86;61.69
65864;SHT30;52639;51.180;20.460;2023-09-08T15:53:06;21.71;62.03
65864;SHT30;52639;51.180;20.460;2023-09-08T15:57:09;21.62;62.19
65864;SHT30;52639;51.180;20.460;2023-09-08T16:01:14;21.35;63.23
65864;SHT30;52639;51.180;20.460;2023-09-08T16:05:17;21.04;64.08
65864;SHT30;52639;51.180;20.460;2023-09-08T16:09:20;20.88;64.61
65864;SHT30;52639;51.180;20.460;2023-09-08T16:13:24;20.73;65.29
65864;SHT30;52639;51.180;20.460;2023-09-08T16:17:29;20.46;66.51
65864;SHT30;52639;51.180;20.460;2023-09-08T16:21:33;20.46;66.84
65864;SHT30;52639;51.180;20.460;2023-09-08T16:25:38;20.23;67.81
65864;SHT30;52639;51.180;20.460;2023-09-08T16:29:41;19.85;69.28
65864;SHT30;52639;51.180;20.460;2023-09-08T16:33:47;19.59;70.37
65864;SHT30;52639;51.180;20.460;2023-09-08T16:37:52;19.48;70.98
65864;SHT30;52639;51.180;20.460;2023-09-08T16:41:56;19.86;70.84
65864;SHT30;52639;51.180;20.460;2023-09-08T16:46:01;19.62;71.37
65864;SHT30;52639;51.180;20.460;2023-09-08T16:50:08;19.11;72.90
65864;SHT30;52639;51.180;20.460;2023-09-08T16:54:12;18.80;73.65
65864;SHT30;52639;51.180;20.460;2023-09-08T16:58:15;18.53;74.30
65864;SHT30;52639;51.180;20.460;2023-09-08T17:02:20;18.19;75.10
65864;SHT30;52639;51.180;20.460;2023-09-08T17:06:26;18.04;75.57
65864;SHT30;52639;51.180;20.460;2023-09-08T17:10:30;17.92;75.95
65864;SHT30;52639;51.180;20.460;2023-09-08T17:14:34;17.65;76.49
65864;SHT30;52639;51.180;20.460;2023-09-08T17:18:48;17.67;76.65
65864;SHT30;52639;51.180;20.460;2023-09-08T17:22:53;17.54;77.06
65864;SHT30;52639;51.180;20.460;2023-09-08T17:26:57;17.35;77.38
65864;SHT30;52639;51.180;20.460;2023-09-08T17:31:01;17.14;77.92
65864;SHT30;52639;51.180;20.460;2023-09-08T17:35:14;16.84;78.74
65864;SHT30;52639;51.180;20.460;2023-09-08T17:39:23;16.60;79.18
65864;SHT30;52639;51.180;20.460;2023-09-08T17:43:31;16.33;79.50
65864;SHT30;52639;51.180;20.460;2023-09-08T17:47:34;16.13;79.71
65864;SHT30;52639;51.180;20.460;2023-09-08T17:51:38;16.08;79.63
65864;SHT30;52639;51.180;20.460;2023-09-08T17:55:42;16.18;79.50
65864;SHT30;52639;51.180;20.460;2023-09-08T17:59:47;15.98;79.76
65864;SHT30;52639;51.180;20.460;2023-09-08T18:04:07;15.94;79.86
65864;SHT30;52639;51.180;20.460;2023-09-08T18:08:18;15.70;80.33
65864;SHT30;52639;51.180;20.460;2023-09-08T18:12:27;15.53;80.76
65864;SHT30;52639;51.180;20.460;2023-09-08T18:16:34;15.27;81.21
65864;SHT30;52639;51.180;20.460;2023-09-08T18:20:38;15.16;81.40
65864;SHT30;52639;51.180;20.460;2023-09-08T18:24:44;15.13;81.36
65864;SHT30;52639;51.180;20.460;2023-09-08T18:29:01;15.14;81.11
65864;SHT30;52639;51.180;20.460;2023-09-08T18:33:07;15.00;81.41
65864;SHT30;52639;51.180;20.460;2023-09-08T18:37:12;15.04;81.35
65864;SHT30;52639;51.180;20.460;2023-09-08T18:41:19;14.93;81.49
65864;SHT30;52639;51.180;20.460;2023-09-08T18:45:53;14.79;81.70
65864;SHT30;52639;51.180;20.460;2023-09-08T18:50:17;14.61;82.12
65864;SHT30;52639;51.180;20.460;2023-09-08T18:55:01;14.95;81.76
65864;SHT30;52639;51.180;20.460;2023-09-08T18:59:07;14.99;81.73
65864;SHT30;52639;51.180;20.460;2023-09-08T19:03:21;14.89;81.80
65864;SHT30;52639;51.180;20.460;2023-09-08T19:08:00;14.82;81.92
65864;SHT30;52639;51.180;20.460;2023-09-08T19:12:39;14.76;82.15
65864;SHT30;52639;51.180;20.460;2023-09-08T19:17:23;14.63;82.66
65864;SHT30;52639;51.180;20.460;2023-09-08T19:21:41;14.55;82.60
65864;SHT30;52639;51.180;20.460;2023-09-08T19:26:13;14.49;82.95
65864;SHT30;52639;51.180;20.460;2023-09-08T19:30:29;14.42;82.74
65864;SHT30;52639;51.180;20.460;2023-09-08T19:40:22;14.02;83.67
65864;SHT30;52639;51.180;20.460;2023-09-08T19:44:48;14.19;83.46
65864;SHT30;52639;51.180;20.460;2023-09-08T19:49:16;14.18;83.51
65864;SHT30;52639;51.180;20.460;2023-09-08T19:53:49;14.05;83.67
65864;SHT30;52639;51.180;20.460;2023-09-08T20:03:04;13.97;83.45
65864;SHT30;52639;51.180;20.460;2023-09-08T20:07:15;13.78;83.88
65864;SHT30;52639;51.180;20.460;2023-09-08T20:11:29;13.56;84.32
65864;SHT30;52639;51.180;20.460;2023-09-08T20:16:03;13.43;84.57
65864;SHT30;52639;51.180;20.460;2023-09-08T20:20:54;13.66;84.37
65864;SHT30;52639;51.180;20.460;2023-09-08T20:25:09;13.63;84.45
65864;SHT30;52639;51.180;20.460;2023-09-08T20:29:23;13.57;84.40
65864;SHT30;52639;51.180;20.460;2023-09-08T20:33:30;13.53;84.72
65864;SHT30;52639;51.180;20.460;2023-09-08T20:37:49;13.43;84.46
65864;SHT30;52639;51.180;20.460;2023-09-08T20:47:21;13.14;84.91
65864;SHT30;52639;51.180;20.460;2023-09-08T20:51:27;12.97;85.00
65864;SHT30;52639;51.180;20.460;2023-09-08T20:55:39;13.07;84.98
65864;SHT30;52639;51.180;20.460;2023-09-08T20:59:55;13.02;84.93
65864;SHT30;52639;51.180;20.460;2023-09-08T21:04:19;12.85;85.23
65864;SHT30;52639;51.180;20.460;2023-09-08T21:08:30;12.78;85.37
65864;SHT30;52639;51.180;20.460;2023-09-08T21:12:37;12.55;85.64
65864;SHT30;52639;51.180;20.460;2023-09-08T21:16:52;12.52;85.71
65864;SHT30;52639;51.180;20.460;2023-09-08T21:21:00;12.53;85.38
65864;SHT30;52639;51.180;20.460;2023-09-08T21:29:28;12.27;86.01
65864;SHT30;52639;51.180;20.460;2023-09-08T21:33:36;12.55;85.72
65864;SHT30;52639;51.180;20.460;2023-09-08T21:37:43;12.59;85.61
65864;SHT30;52639;51.180;20.460;2023-09-08T21:41:49;12.50;85.65
65864;SHT30;52639;51.180;20.460;2023-09-08T21:46:04;12.45;85.70
65864;SHT30;52639;51.180;20.460;2023-09-08T21:50:10;12.28;86.02
65864;SHT30;52639;51.180;20.460;2023-09-08T21:54:13;12.21;86.17
65864;SHT30;52639;51.180;20.460;2023-09-08T21:58:18;12.31;86.09
65864;SHT30;52639;51.180;20.460;2023-09-08T22:02:23;12.32;86.00
65864;SHT30;52639;51.180;20.460;2023-09-08T22:06:26;12.32;86.16
65864;SHT30;52639;51.180;20.460;2023-09-08T22:10:31;12.32;86.57
65864;SHT30;52639;51.180;20.460;2023-09-08T22:14:35;12.25;86.61
65864;SHT30;52639;51.180;20.460;2023-09-08T22:18:42;12.27;86.60
65864;SHT30;52639;51.180;20.460;2023-09-08T22:22:49;12.20;86.70
65864;SHT30;52639;51.180;20.460;2023-09-08T22:26:52;12.15;86.77
65864;SHT30;52639;51.180;20.460;2023-09-08T22:30:56;12.10;86.95
65864;SHT30;52639;51.180;20.460;2023-09-08T22:35:00;12.07;86.99
65864;SHT30;52639;51.180;20.460;2023-09-08T22:39:06;11.99;87.19
65864;SHT30;52639;51.180;20.460;2023-09-08T22:43:16;11.94;87.03
65864;SHT30;52639;51.180;20.460;2023-09-08T22:47:22;11.90;86.97
65864;SHT30;52639;51.180;20.460;2023-09-08T22:51:28;11.84;87.06
65864;SHT30;52639;51.180;20.460;2023-09-08T22:55:31;11.61;87.29
65864;SHT30;52639;51.180;20.460;2023-09-08T22:59:44;11.64;87.47
65864;SHT30;52639;51.180;20.460;2023-09-08T23:03:49;11.56;87.28
65864;SHT30;52639;51.180;20.460;2023-09-08T23:08:03;11.57;87.37
65864;SHT30;52639;51.180;20.460;2023-09-08T23:12:09;11.57;87.59
65864;SHT30;52639;51.180;20.460;2023-09-08T23:16:15;11.56;87.63
65864;SHT30;52639;51.180;20.460;2023-09-08T23:20:18;11.52;87.58
65864;SHT30;52639;51.180;20.460;2023-09-08T23:24:30;11.53;87.28
65864;SHT30;52639;51.180;20.460;2023-09-08T23:28:36;11.47;87.45
65864;SHT30;52639;51.180;20.460;2023-09-08T23:32:40;11.42;87.47
65864;SHT30;52639;51.180;20.460;2023-09-08T23:36:45;11.37;87.55
65864;SHT30;52639;51.180;20.460;2023-09-08T23:40:50;11.42;87.65
65864;SHT30;52639;51.180;20.460;2023-09-08T23:44:56;11.34;87.65
65864;SHT30;52639;51.180;20.460;2023-09-08T23:48:59;11.08;87.94
65864;SHT30;52639;51.180;20.460;2023-09-08T23:53:03;11.12;88.12
65864;SHT30;52639;51.180;20.460;2023-09-08T23:57:13;11.18;87.91
